sensor_id;sensor_type;location;lat;lon;timestamp;pressure;altitude;pressure_sealevel;temperature;humidity
77366;BME280;66430;50.182;11.704;2023-05-18T00:01:44;95418.63;;;9.30;33.15
77366;BME280;66430;50.182;11.704;2023-05-18T00:04:10;95415.71;;;9.13;33.10
77366;BME280;66430;50.182;11.704;2023-05-18T00:06:40;95415.14;;;9.35;33.14
77366;BME280;66430;50.182;11.704;2023-05-18T00:09:03;95413.83;;;9.16;33.10
77366;BME280;66430;50.182;11.704;2023-05-18T00:11:27;95414.40;;;9.12;33.29
77366;BME280;66430;50.182;11.704;2023-05-18T00:13:54;95414.95;;;9.05;33.33
77366;BME280;66430;50.182;11.704;2023-05-18T00:16:17;95415.06;;;9.11;33.19
77366;BME280;66430;50.182;11.704;2023-05-18T00:18:43;95416.04;;;8.58;33.76
77366;BME280;66430;50.182;11.704;2023-05-18T00:21:08;95413.88;;;8.75;33.78
77366;BME280;66430;50.182;11.704;2023-05-18T00:23:34;95415.13;;;8.97;33.17
77366;BME280;66430;50.182;11.704;2023-05-18T00:26:00;95410.41;;;9.21;33.31
77366;BME280;66430;50.182;11.704;2023-05-18T00:28:25;95409.72;;;9.00;33.22
77366;BME280;66430;50.182;11.704;2023-05-18T00:30:50;95409.35;;;9.06;33.17
77366;BME280;66430;50.182;11.704;2023-05-18T00:33:16;95410.88;;;8.87;33.30
77366;BME280;66430;50.182;11.704;2023-05-18T00:35:41;95412.51;;;8.89;33.57
77366;BME280;66430;50.182;11.704;2023-05-18T00:38:07;95411.26;;;8.87;33.56
77366;BME280;66430;50.182;11.704;2023-05-18T00:40:33;95415.29;;;8.83;33.58
77366;BME280;66430;50.182;11.704;2023-05-18T00:42:59;95417.98;;;8.71;33.73
77366;BME280;66430;50.182;11.704;2023-05-18T00:45:24;95419.43;;;9.07;33.59
77366;BME280;66430;50.182;11.704;2023-05-18T00:47:50;95422.71;;;9.00;33.75
77366;BME280;66430;50.182;11.704;2023-05-18T00:50:15;95424.24;;;8.78;33.86
77366;BME280;66430;50.182;11.704;2023-05-18T00:52:42;95424.70;;;8.84;34.08
77366;BME280;66430;50.182;11.704;2023-05-18T00:55:07;95421.13;;;8.71;33.81
77366;BME280;66430;50.182;11.704;2023-05-18T00:57:32;95424.84;;;8.89;33.83
77366;BME280;66430;50.182;11.704;2023-05-18T00:59:58;95426.57;;;8.74;34.17
77366;BME280;66430;50.182;11.704;2023-05-18T01:02:23;95425.89;;;8.75;34.09
77366;BME280;66430;50.182;11.704;2023-05-18T01:04:48;95426.77;;;8.65;34.36
77366;BME280;66430;50.182;11.704;2023-05-18T01:07:14;95428.26;;;8.79;34.50
77366;BME280;66430;50.182;11.704;2023-05-18T01:09:39;95423.83;;;8.56;34.32
77366;BME280;66430;50.182;11.704;2023-05-18T01:12:11;95426.75;;;8.41;34.67
77366;BME280;66430;50.182;11.704;2023-05-18T01:14:36;95423.86;;;8.55;34.32
77366;BME280;66430;50.182;11.704;2023-05-18T01:21:55;95425.99;;;8.56;34.84
77366;BME280;66430;50.182;11.704;2023-05-18T01:24:22;95426.86;;;8.55;34.75
77366;BME280;66430;50.182;11.704;2023-05-18T01:26:40;95428.22;;;8.29;35.28
77366;BME280;66430;50.182;11.704;2023-05-18T01:29:08;95426.70;;;8.23;35.37
77366;BME280;66430;50.182;11.704;2023-05-18T01:31:30;95426.61;;;7.62;35.45
77366;BME280;66430;50.182;11.704;2023-05-18T01:33:55;95423.37;;;8.19;35.41
77366;BME280;66430;50.182;11.704;2023-05-18T01:36:21;95424.39;;;8.52;35.22
77366;BME280;66430;50.182;11.704;2023-05-18T01:38:47;95422.82;;;8.14;35.51
77366;BME280;66430;50.182;11.704;2023-05-18T01:41:17;95420.84;;;7.92;35.89
77366;BME280;66430;50.182;11.704;2023-05-18T01:43:45;95422.12;;;8.30;35.67
77366;BME280;66430;50.182;11.704;2023-05-18T01:46:07;95418.30;;;8.17;35.99
77366;BME280;66430;50.182;11.704;2023-05-18T01:48:28;95418.36;;;8.03;35.78
77366;BME280;66430;50.182;11.704;2023-05-18T01:50:57;95416.49;;;7.87;35.58
77366;BME280;66430;50.182;11.704;2023-05-18T01:53:24;95417.42;;;7.97;35.83
77366;BME280;66430;50.182;11.704;2023-05-18T01:55:47;95416.49;;;8.15;35.86
77366;BME280;66430;50.182;11.704;2023-05-18T01:58:13;95419.19;;;7.95;35.80
77366;BME280;66430;50.182;11.704;2023-05-18T02:00:36;95419.95;;;7.97;36.18
77366;BME280;66430;50.182;11.704;2023-05-18T02:03:02;95416.97;;;7.88;36.01
77366;BME280;66430;50.182;11.704;2023-05-18T02:05:27;95415.48;;;8.10;36.03
77366;BME280;66430;50.182;11.704;2023-05-18T02:07:52;95415.03;;;8.10;35.86
77366;BME280;66430;50.182;11.704;2023-05-18T02:10:18;95413.13;;;8.27;35.95
77366;BME280;66430;50.182;11.704;2023-05-18T02:12:45;95408.88;;;8.17;36.07
77366;BME280;66430;50.182;11.704;2023-05-18T02:15:10;95404.79;;;7.96;36.08
77366;BME280;66430;50.182;11.704;2023-05-18T02:17:35;95400.78;;;7.70;35.95
77366;BME280;66430;50.182;11.704;2023-05-18T02:20:00;95400.22;;;7.85;36.02
77366;BME280;66430;50.182;11.704;2023-05-18T02:22:26;95399.30;;;7.89;35.91
77366;BME280;66430;50.182;11.704;2023-05-18T02:24:53;95398.64;;;7.77;36.22
77366;BME280;66430;50.182;11.704;2023-05-18T02:27:17;95398.38;;;7.38;36.47
77366;BME280;66430;50.182;11.704;2023-05-18T02:29:42;95402.15;;;7.45;36.68
77366;BME280;66430;50.182;11.704;2023-05-18T02:32:11;95400.69;;;7.19;36.77
77366;BME280;66430;50.182;11.704;2023-05-18T02:34:34;95401.70;;;7.71;36.85
77366;BME280;66430;50.182;11.704;2023-05-18T02:36:59;95404.26;;;7.76;36.62
77366;BME280;66430;50.182;11.704;2023-05-18T02:39:25;95402.60;;;7.77;36.67
77366;BME280;66430;50.182;11.704;2023-05-18T02:41:50;95402.13;;;7.66;36.91
77366;BME280;66430;50.182;11.704;2023-05-18T02:44:16;95403.99;;;7.67;36.67
77366;BME280;66430;50.182;11.704;2023-05-18T02:46:41;95403.93;;;7.64;36.67
77366;BME280;66430;50.182;11.704;2023-05-18T02:49:07;95402.60;;;7.53;37.05
77366;BME280;66430;50.182;11.704;2023-05-18T02:51:32;95401.77;;;7.50;37.08
77366;BME280;66430;50.182;11.704;2023-05-18T02:53:58;95398.54;;;7.25;36.92
77366;BME280;66430;50.182;11.704;2023-05-18T02:56:24;95400.38;;;7.53;36.84
77366;BME280;66430;50.182;11.704;2023-05-18T02:58:49;95402.04;;;7.36;37.37
77366;BME280;66430;50.182;11.704;2023-05-18T03:01:14;95404.76;;;7.47;36.97
77366;BME280;66430;50.182;11.704;2023-05-18T03:03:40;95405.41;;;7.27;37.24
77366;BME280;66430;50.182;11.704;2023-05-18T03:06:05;95411.41;;;7.04;37.26
77366;BME280;66430;50.182;11.704;2023-05-18T03:08:31;95411.72;;;7.29;37.29
77366;BME280;66430;50.182;11.704;2023-05-18T03:10:57;95410.67;;;7.41;37.06
77366;BME280;66430;50.182;11.704;2023-05-18T03:13:22;95411.32;;;7.01;37.75
77366;BME280;66430;50.182;11.704;2023-05-18T03:15:48;95415.79;;;6.87;38.01
77366;BME280;66430;50.182;11.704;2023-05-18T03:18:14;95416.12;;;6.63;38.41
77366;BME280;66430;50.182;11.704;2023-05-18T03:20:39;95414.95;;;6.65;38.18
77366;BME280;66430;50.182;11.704;2023-05-18T03:23:04;95413.57;;;6.89;37.83
77366;BME280;66430;50.182;11.704;2023-05-18T03:25:29;95412.40;;;7.39;38.20
77366;BME280;66430;50.182;11.704;2023-05-18T03:27:55;95411.96;;;6.83;38.25
77366;BME280;66430;50.182;11.704;2023-05-18T03:30:21;95413.02;;;6.80;38.15
77366;BME280;66430;50.182;11.704;2023-05-18T03:32:46;95411.97;;;6.65;38.24
77366;BME280;66430;50.182;11.704;2023-05-18T03:35:11;95413.67;;;6.64;38.50
77366;BME280;66430;50.182;11.704;2023-05-18T03:37:37;95413.90;;;6.86;38.52
77366;BME280;66430;50.182;11.704;2023-05-18T03:40:10;95421.84;;;6.57;38.73
77366;BME280;66430;50.182;11.704;2023-05-18T03:42:28;95421.00;;;6.49;38.99
77366;BME280;66430;50.182;11.704;2023-05-18T03:44:54;95422.35;;;6.54;38.81
77366;BME280;66430;50.182;11.704;2023-05-18T03:47:19;95421.32;;;6.68;38.55
77366;BME280;66430;50.182;11.704;2023-05-18T03:49:45;95420.78;;;6.59;38.79
77366;BME280;66430;50.182;11.704;2023-05-18T03:52:11;95423.55;;;6.57;38.95
77366;BME280;66430;50.182;11.704;2023-05-18T03:54:36;95426.40;;;6.71;39.62
77366;BME280;66430;50.182;11.704;2023-05-18T03:57:02;95427.71;;;6.41;39.82
77366;BME280;66430;50.182;11.704;2023-05-18T03:59:27;95432.00;;;6.21;40.17
77366;BME280;66430;50.182;11.704;2023-05-18T04:01:53;95433.90;;;6.15;40.05
77366;BME280;66430;50.182;11.704;2023-05-18T04:04:19;95434.86;;;6.40;39.74
77366;BME280;66430;50.182;11.704;2023-05-18T04:06:44;95440.35;;;6.83;39.97
77366;BME280;66430;50.182;11.704;2023-05-18T04:09:10;95444.21;;;6.64;39.83
77366;BME280;66430;50.182;11.704;2023-05-18T04:11:35;95445.18;;;6.52;40.09
77366;BME280;66430;50.182;11.704;2023-05-18T04:14:00;95440.04;;;6.64;39.71
77366;BME280;66430;50.182;11.704;2023-05-18T04:16:26;95444.50;;;6.72;40.30
77366;BME280;66430;50.182;11.704;2023-05-18T04:18:51;95441.26;;;6.66;40.15
77366;BME280;66430;50.182;11.704;2023-05-18T04:21:17;95444.91;;;6.38;40.62
77366;BME280;66430;50.182;11.704;2023-05-18T04:23:42;95446.13;;;6.47;41.12
77366;BME280;66430;50.182;11.704;2023-05-18T04:26:08;95449.78;;;6.15;41.58
77366;BME280;66430;50.182;11.704;2023-05-18T04:28:34;95451.20;;;6.37;41.22
77366;BME280;66430;50.182;11.704;2023-05-18T04:30:59;95452.92;;;6.34;41.01
77366;BME280;66430;50.182;11.704;2023-05-18T04:33:25;95453.72;;;6.08;41.22
77366;BME280;66430;50.182;11.704;2023-05-18T04:35:50;95456.41;;;6.54;40.78
77366;BME280;66430;50.182;11.704;2023-05-18T04:38:15;95450.14;;;6.92;40.49
77366;BME280;66430;50.182;11.704;2023-05-18T04:40:41;95454.36;;;6.21;40.99
77366;BME280;66430;50.182;11.704;2023-05-18T04:43:06;95455.35;;;6.38;41.52
77366;BME280;66430;50.182;11.704;2023-05-18T04:45:32;95456.15;;;6.27;42.19
77366;BME280;66430;50.182;11.704;2023-05-18T04:47:57;95454.87;;;6.06;42.26
77366;BME280;66430;50.182;11.704;2023-05-18T04:50:22;95459.21;;;6.15;42.62
77366;BME280;66430;50.182;11.704;2023-05-18T04:52:49;95459.14;;;6.04;42.66
77366;BME280;66430;50.182;11.704;2023-05-18T04:55:14;95465.66;;;6.11;42.62
77366;BME280;66430;50.182;11.704;2023-05-18T04:57:39;95467.22;;;5.92;42.96
77366;BME280;66430;50.182;11.704;2023-05-18T05:00:06;95461.82;;;6.08;43.27
77366;BME280;66430;50.182;11.704;2023-05-18T05:02:30;95462.34;;;6.48;41.76
77366;BME280;66430;50.182;11.704;2023-05-18T05:04:56;95466.89;;;6.70;41.55
77366;BME280;66430;50.182;11.704;2023-05-18T05:07:21;95462.50;;;6.96;41.40
77366;BME280;66430;50.182;11.704;2023-05-18T05:09:47;95461.33;;;6.97;41.31
77366;BME280;66430;50.182;11.704;2023-05-18T05:12:12;95457.89;;;6.67;41.65
77366;BME280;66430;50.182;11.704;2023-05-18T05:14:39;95456.66;;;6.89;41.94
77366;BME280;66430;50.182;11.704;2023-05-18T05:17:03;95457.96;;;7.35;40.99
77366;BME280;66430;50.182;11.704;2023-05-18T05:19:28;95459.82;;;7.73;40.03
77366;BME280;66430;50.182;11.704;2023-05-18T05:21:54;95458.38;;;7.96;40.40
77366;BME280;66430;50.182;11.704;2023-05-18T05:24:20;95457.31;;;8.25;39.60
77366;BME280;66430;50.182;11.704;2023-05-18T05:26:46;95460.45;;;8.15;39.40
77366;BME280;66430;50.182;11.704;2023-05-18T05:29:11;95461.07;;;8.54;39.40
77366;BME280;66430;50.182;11.704;2023-05-18T05:31:36;95454.55;;;8.35;38.43
77366;BME280;66430;50.182;11.704;2023-05-18T05:34:01;95457.42;;;7.92;39.37
77366;BME280;66430;50.182;11.704;2023-05-18T05:36:27;95461.72;;;8.04;39.35
77366;BME280;66430;50.182;11.704;2023-05-18T05:38:53;95464.13;;;7.98;39.77
77366;BME280;66430;50.182;11.704;2023-05-18T05:41:19;95469.19;;;8.39;39.47
77366;BME280;66430;50.182;11.704;2023-05-18T05:43:43;95470.58;;;8.40;39.63
77366;BME280;66430;50.182;11.704;2023-05-18T05:46:09;95476.39;;;8.28;39.39
77366;BME280;66430;50.182;11.704;2023-05-18T05:48:34;95475.56;;;8.17;38.90
77366;BME280;66430;50.182;11.704;2023-05-18T05:51:00;95474.69;;;8.94;38.99
77366;BME280;66430;50.182;11.704;2023-05-18T05:53:26;95475.53;;;8.74;38.76
77366;BME280;66430;50.182;11.704;2023-05-18T05:55:51;95480.49;;;8.99;38.60
77366;BME280;66430;50.182;11.704;2023-05-18T05:58:17;95478.46;;;8.72;38.66
77366;BME280;66430;50.182;11.704;2023-05-18T06:00:42;95478.58;;;8.45;39.00
77366;BME280;66430;50.182;11.704;2023-05-18T06:03:07;95488.44;;;8.90;39.49
77366;BME280;66430;50.182;11.704;2023-05-18T06:05:33;95481.76;;;9.06;37.75
77366;BME280;66430;50.182;11.704;2023-05-18T06:07:59;95479.78;;;8.90;38.63
77366;BME280;66430;50.182;11.704;2023-05-18T06:10:25;95482.17;;;9.34;37.64
77366;BME280;66430;50.182;11.704;2023-05-18T06:12:50;95479.13;;;9.36;37.50
77366;BME280;66430;50.182;11.704;2023-05-18T06:15:15;95480.27;;;9.29;38.50
77366;BME280;66430;50.182;11.704;2023-05-18T06:17:41;95488.25;;;9.17;38.48
77366;BME280;66430;50.182;11.704;2023-05-18T06:20:07;95488.75;;;9.89;37.90
77366;BME280;66430;50.182;11.704;2023-05-18T06:22:33;95488.22;;;9.13;38.86
77366;BME280;66430;50.182;11.704;2023-05-18T06:24:58;95486.11;;;9.44;40.26
77366;BME280;66430;50.182;11.704;2023-05-18T06:27:23;95487.15;;;9.55;38.12
77366;BME280;66430;50.182;11.704;2023-05-18T06:29:49;95484.75;;;9.98;37.89
77366;BME280;66430;50.182;11.704;2023-05-18T06:32:14;95483.68;;;10.00;38.48
77366;BME280;66430;50.182;11.704;2023-05-18T06:34:39;95484.88;;;9.76;39.51
77366;BME280;66430;50.182;11.704;2023-05-18T06:37:04;95485.00;;;9.92;38.29
77366;BME280;66430;50.182;11.704;2023-05-18T06:39:30;95486.70;;;9.76;38.81
77366;BME280;66430;50.182;11.704;2023-05-18T06:41:56;95483.10;;;9.95;39.52
77366;BME280;66430;50.182;11.704;2023-05-18T06:44:21;95488.59;;;9.73;38.00
77366;BME280;66430;50.182;11.704;2023-05-18T06:46:46;95486.19;;;9.82;39.34
77366;BME280;66430;50.182;11.704;2023-05-18T06:49:12;95484.36;;;9.80;37.30
77366;BME280;66430;50.182;11.704;2023-05-18T06:51:37;95483.68;;;10.03;38.70
77366;BME280;66430;50.182;11.704;2023-05-18T06:54:02;95482.02;;;9.99;38.60
77366;BME280;66430;50.182;11.704;2023-05-18T06:56:28;95486.39;;;10.13;37.82
77366;BME280;66430;50.182;11.704;2023-05-18T06:58:53;95484.28;;;10.18;37.46
77366;BME280;66430;50.182;11.704;2023-05-18T07:01:19;95484.67;;;10.05;38.39
77366;BME280;66430;50.182;11.704;2023-05-18T07:03:44;95488.53;;;10.09;37.54
77366;BME280;66430;50.182;11.704;2023-05-18T07:06:09;95485.22;;;10.16;38.45
77366;BME280;66430;50.182;11.704;2023-05-18T07:08:37;95491.20;;;10.04;38.31
77366;BME280;66430;50.182;11.704;2023-05-18T07:11:00;95481.88;;;10.10;38.85
77366;BME280;66430;50.182;11.704;2023-05-18T07:13:25;95483.17;;;10.10;36.99
77366;BME280;66430;50.182;11.704;2023-05-18T07:15:52;95483.04;;;10.00;38.64
77366;BME280;66430;50.182;11.704;2023-05-18T07:18:16;95486.04;;;9.95;38.76
77366;BME280;66430;50.182;11.704;2023-05-18T07:20:42;95478.99;;;10.21;36.42
77366;BME280;66430;50.182;11.704;2023-05-18T07:23:11;95484.20;;;10.23;37.51
77366;BME280;66430;50.182;11.704;2023-05-18T07:25:33;95483.96;;;10.09;38.91
77366;BME280;66430;50.182;11.704;2023-05-18T07:27:58;95486.77;;;10.22;37.99
77366;BME280;66430;50.182;11.704;2023-05-18T07:30:25;95478.25;;;10.27;38.30
77366;BME280;66430;50.182;11.704;2023-05-18T07:32:49;95474.89;;;10.73;37.88
77366;BME280;66430;50.182;11.704;2023-05-18T07:35:15;95480.90;;;10.84;36.74
77366;BME280;66430;50.182;11.704;2023-05-18T07:37:40;95473.70;;;10.91;37.87
77366;BME280;66430;50.182;11.704;2023-05-18T07:40:07;95474.69;;;11.09;35.63
77366;BME280;66430;50.182;11.704;2023-05-18T07:42:31;95479.25;;;10.88;35.93
77366;BME280;66430;50.182;11.704;2023-05-18T07:44:56;95479.09;;;10.70;35.79
77366;BME280;66430;50.182;11.704;2023-05-18T07:47:23;95476.56;;;10.43;37.38
77366;BME280;66430;50.182;11.704;2023-05-18T07:49:47;95481.09;;;10.60;38.31
77366;BME280;66430;50.182;11.704;2023-05-18T07:52:13;95481.38;;;10.72;37.07
77366;BME280;66430;50.182;11.704;2023-05-18T07:54:38;95479.29;;;10.75;38.59
77366;BME280;66430;50.182;11.704;2023-05-18T07:57:03;95478.46;;;11.35;40.19
77366;BME280;66430;50.182;11.704;2023-05-18T07:59:29;95476.60;;;11.91;39.35
77366;BME280;66430;50.182;11.704;2023-05-18T08:01:54;95474.43;;;12.17;35.90
77366;BME280;66430;50.182;11.704;2023-05-18T08:04:19;95477.57;;;12.02;35.31
77366;BME280;66430;50.182;11.704;2023-05-18T08:06:44;95467.51;;;11.52;35.38
77366;BME280;66430;50.182;11.704;2023-05-18T08:09:10;95467.10;;;12.34;37.54
77366;BME280;66430;50.182;11.704;2023-05-18T08:11:35;95471.06;;;12.46;37.20
77366;BME280;66430;50.182;11.704;2023-05-18T08:14:01;95468.99;;;12.83;34.85
77366;BME280;66430;50.182;11.704;2023-05-18T08:16:26;95471.02;;;12.44;33.53
77366;BME280;66430;50.182;11.704;2023-05-18T08:18:51;95477.20;;;12.68;34.06
77366;BME280;66430;50.182;11.704;2023-05-18T08:21:16;95467.92;;;12.46;34.37
77366;BME280;66430;50.182;11.704;2023-05-18T08:23:42;95475.63;;;12.54;35.65
77366;BME280;66430;50.182;11.704;2023-05-18T08:26:07;95470.92;;;13.48;34.98
77366;BME280;66430;50.182;11.704;2023-05-18T08:28:33;95473.72;;;13.33;36.44
77366;BME280;66430;50.182;11.704;2023-05-18T08:30:58;95475.04;;;13.31;33.22
77366;BME280;66430;50.182;11.704;2023-05-18T08:33:24;95472.35;;;13.02;31.38
77366;BME280;66430;50.182;11.704;2023-05-18T08:35:49;95473.39;;;12.62;33.13
77366;BME280;66430;50.182;11.704;2023-05-18T08:38:14;95468.64;;;12.97;34.53
77366;BME280;66430;50.182;11.704;2023-05-18T08:40:43;95481.48;;;12.78;31.34
77366;BME280;66430;50.182;11.704;2023-05-18T08:43:10;95472.46;;;12.93;32.66
77366;BME280;66430;50.182;11.704;2023-05-18T08:45:37;95481.45;;;12.68;31.63
77366;BME280;66430;50.182;11.704;2023-05-18T08:47:59;95472.87;;;12.54;31.42
77366;BME280;66430;50.182;11.704;2023-05-18T08:50:22;95475.27;;;12.93;31.67
77366;BME280;66430;50.182;11.704;2023-05-18T08:52:47;95475.33;;;13.15;31.31
77366;BME280;66430;50.182;11.704;2023-05-18T08:55:13;95469.43;;;12.90;30.99
77366;BME280;66430;50.182;11.704;2023-05-18T08:57:38;95473.62;;;12.77;30.36
77366;BME280;66430;50.182;11.704;2023-05-18T09:00:04;95469.40;;;13.04;29.69
77366;BME280;66430;50.182;11.704;2023-05-18T09:02:32;95465.41;;;12.56;31.44
77366;BME280;66430;50.182;11.704;2023-05-18T09:04:54;95465.55;;;12.99;32.22
77366;BME280;66430;50.182;11.704;2023-05-18T09:07:20;95473.08;;;12.74;32.32
77366;BME280;66430;50.182;11.704;2023-05-18T09:09:46;95458.65;;;12.70;31.93
77366;BME280;66430;50.182;11.704;2023-05-18T09:12:10;95460.00;;;12.66;30.72
77366;BME280;66430;50.182;11.704;2023-05-18T09:14:35;95457.07;;;12.46;30.41
77366;BME280;66430;50.182;11.704;2023-05-18T09:17:00;95455.59;;;12.47;30.60
77366;BME280;66430;50.182;11.704;2023-05-18T09:19:26;95457.80;;;12.91;30.72
77366;BME280;66430;50.182;11.704;2023-05-18T09:21:52;95447.74;;;12.29;33.42
77366;BME280;66430;50.182;11.704;2023-05-18T09:24:17;95459.88;;;12.58;32.79
77366;BME280;66430;50.182;11.704;2023-05-18T09:26:43;95448.27;;;12.83;31.08
77366;BME280;66430;50.182;11.704;2023-05-18T09:29:14;95445.68;;;12.90;29.68
77366;BME280;66430;50.182;11.704;2023-05-18T09:31:36;95442.91;;;13.16;32.64
77366;BME280;66430;50.182;11.704;2023-05-18T09:33:59;95439.91;;;13.49;32.25
77366;BME280;66430;50.182;11.704;2023-05-18T09:36:25;95445.37;;;12.94;30.87
77366;BME280;66430;50.182;11.704;2023-05-18T09:38:51;95440.30;;;13.07;31.64
77366;BME280;66430;50.182;11.704;2023-05-18T09:41:16;95445.41;;;13.40;30.56
77366;BME280;66430;50.182;11.704;2023-05-18T09:43:40;95447.40;;;12.98;30.25
77366;BME280;66430;50.182;11.704;2023-05-18T09:46:06;95446.91;;;13.25;31.94
77366;BME280;66430;50.182;11.704;2023-05-18T09:48:31;95443.13;;;13.33;33.32
77366;BME280;66430;50.182;11.704;2023-05-18T09:50:58;95446.04;;;13.71;29.81
77366;BME280;66430;50.182;11.704;2023-05-18T09:53:22;95447.11;;;13.25;30.90
77366;BME280;66430;50.182;11.704;2023-05-18T09:55:48;95447.11;;;12.90;30.33
77366;BME280;66430;50.182;11.704;2023-05-18T09:58:13;95440.36;;;13.59;31.87
77366;BME280;66430;50.182;11.704;2023-05-18T10:00:40;95437.89;;;13.63;32.62
77366;BME280;66430;50.182;11.704;2023-05-18T10:03:04;95434.65;;;14.18;31.08
77366;BME280;66430;50.182;11.704;2023-05-18T10:05:29;95432.90;;;14.80;30.94
77366;BME280;66430;50.182;11.704;2023-05-18T10:07:55;95430.35;;;14.32;28.80
77366;BME280;66430;50.182;11.704;2023-05-18T10:10:22;95438.37;;;14.29;30.29
77366;BME280;66430;50.182;11.704;2023-05-18T10:12:50;95450.00;;;13.64;29.03
77366;BME280;66430;50.182;11.704;2023-05-18T10:15:14;95454.11;;;13.15;30.37
77366;BME280;66430;50.182;11.704;2023-05-18T10:17:36;95444.89;;;13.38;29.93
77366;BME280;66430;50.182;11.704;2023-05-18T10:20:01;95440.53;;;13.53;28.41
77366;BME280;66430;50.182;11.704;2023-05-18T10:22:27;95435.15;;;14.02;28.01
77366;BME280;66430;50.182;11.704;2023-05-18T10:24:52;95429.48;;;13.76;30.21
77366;BME280;66430;50.182;11.704;2023-05-18T10:27:25;95427.55;;;13.60;29.03
77366;BME280;66430;50.182;11.704;2023-05-18T10:29:42;95420.34;;;13.70;28.60
77366;BME280;66430;50.182;11.704;2023-05-18T10:32:11;95422.42;;;13.84;29.66
77366;BME280;66430;50.182;11.704;2023-05-18T10:34:34;95434.52;;;13.80;29.92
77366;BME280;66430;50.182;11.704;2023-05-18T10:37:01;95417.13;;;13.88;30.74
77366;BME280;66430;50.182;11.704;2023-05-18T10:39:25;95417.63;;;14.31;28.91
77366;BME280;66430;50.182;11.704;2023-05-18T10:41:52;95411.88;;;14.38;28.04
77366;BME280;66430;50.182;11.704;2023-05-18T10:44:15;95420.55;;;13.66;29.54
77366;BME280;66430;50.182;11.704;2023-05-18T10:46:40;95413.15;;;14.21;32.97
77366;BME280;66430;50.182;11.704;2023-05-18T10:49:07;95415.06;;;14.03;29.39
77366;BME280;66430;50.182;11.704;2023-05-18T10:51:31;95405.65;;;14.27;29.38
77366;BME280;66430;50.182;11.704;2023-05-18T10:54:09;95407.55;;;14.47;29.36
77366;BME280;66430;50.182;11.704;2023-05-18T10:56:22;95409.02;;;14.56;30.29
77366;BME280;66430;50.182;11.704;2023-05-18T10:58:48;95411.22;;;14.76;29.41
77366;BME280;66430;50.182;11.704;2023-05-18T11:01:13;95413.10;;;14.64;27.26
77366;BME280;66430;50.182;11.704;2023-05-18T11:03:38;95405.68;;;15.24;28.20
77366;BME280;66430;50.182;11.704;2023-05-18T11:06:05;95404.28;;;14.77;28.74
77366;BME280;66430;50.182;11.704;2023-05-18T11:08:29;95406.75;;;14.08;28.56
77366;BME280;66430;50.182;11.704;2023-05-18T11:11:01;95397.77;;;14.95;31.32
77366;BME280;66430;50.182;11.704;2023-05-18T11:13:27;95400.92;;;14.64;30.60
77366;BME280;66430;50.182;11.704;2023-05-18T11:16:02;95396.41;;;14.22;29.06
77366;BME280;66430;50.182;11.704;2023-05-18T11:18:12;95399.69;;;14.36;27.81
77366;BME280;66430;50.182;11.704;2023-05-18T11:20:36;95396.52;;;14.02;28.50
77366;BME280;66430;50.182;11.704;2023-05-18T11:23:02;95402.84;;;14.83;29.37
77366;BME280;66430;50.182;11.704;2023-05-18T11:25:39;95394.53;;;14.60;27.87
77366;BME280;66430;50.182;11.704;2023-05-18T11:27:54;95400.10;;;14.19;29.31
77366;BME280;66430;50.182;11.704;2023-05-18T11:30:25;95390.47;;;13.97;30.34
77366;BME280;66430;50.182;11.704;2023-05-18T11:32:49;95395.68;;;14.14;31.44
77366;BME280;66430;50.182;11.704;2023-05-18T11:35:17;95388.04;;;14.54;29.13
77366;BME280;66430;50.182;11.704;2023-05-18T11:37:47;95384.85;;;14.96;30.73
77366;BME280;66430;50.182;11.704;2023-05-18T11:40:00;95390.61;;;14.89;30.02
77366;BME280;66430;50.182;11.704;2023-05-18T11:42:31;95391.33;;;14.93;28.52
77366;BME280;66430;50.182;11.704;2023-05-18T11:44:51;95400.08;;;15.19;28.51
77366;BME280;66430;50.182;11.704;2023-05-18T11:47:17;95399.14;;;15.28;28.17
77366;BME280;66430;50.182;11.704;2023-05-18T11:49:43;95392.35;;;15.47;27.03
77366;BME280;66430;50.182;11.704;2023-05-18T11:52:12;95389.88;;;15.20;27.40
77366;BME280;66430;50.182;11.704;2023-05-18T11:54:37;95397.70;;;15.16;26.79
77366;BME280;66430;50.182;11.704;2023-05-18T11:56:58;95398.34;;;14.93;28.32
77366;BME280;66430;50.182;11.704;2023-05-18T11:59:30;95388.71;;;15.13;25.71
77366;BME280;66430;50.182;11.704;2023-05-18T12:01:48;95386.31;;;15.57;29.02
77366;BME280;66430;50.182;11.704;2023-05-18T12:04:14;95388.14;;;15.46;27.33
77366;BME280;66430;50.182;11.704;2023-05-18T12:06:39;95387.09;;;16.01;28.40
77366;BME280;66430;50.182;11.704;2023-05-18T12:09:06;95387.54;;;15.88;26.57
77366;BME280;66430;50.182;11.704;2023-05-18T12:11:30;95385.66;;;15.83;26.27
77366;BME280;66430;50.182;11.704;2023-05-18T12:13:55;95389.76;;;16.44;25.69
77366;BME280;66430;50.182;11.704;2023-05-18T12:16:22;95386.06;;;15.75;26.38
77366;BME280;66430;50.182;11.704;2023-05-18T12:18:48;95381.24;;;16.27;27.88
77366;BME280;66430;50.182;11.704;2023-05-18T12:21:11;95388.10;;;15.76;27.35
77366;BME280;66430;50.182;11.704;2023-05-18T12:23:36;95382.30;;;15.79;27.31
77366;BME280;66430;50.182;11.704;2023-05-18T12:26:02;95385.68;;;16.08;27.56
77366;BME280;66430;50.182;11.704;2023-05-18T12:28:28;95373.79;;;15.64;26.31
77366;BME280;66430;50.182;11.704;2023-05-18T12:30:55;95376.27;;;16.24;25.72
77366;BME280;66430;50.182;11.704;2023-05-18T12:33:21;95372.41;;;16.16;27.06
77366;BME280;66430;50.182;11.704;2023-05-18T12:35:43;95370.04;;;16.56;28.50
77366;BME280;66430;50.182;11.704;2023-05-18T12:38:08;95365.35;;;15.94;26.55
77366;BME280;66430;50.182;11.704;2023-05-18T12:40:35;95377.91;;;15.96;25.36
77366;BME280;66430;50.182;11.704;2023-05-18T12:43:00;95373.10;;;15.82;28.06
77366;BME280;66430;50.182;11.704;2023-05-18T12:45:26;95369.19;;;15.75;28.06
77366;BME280;66430;50.182;11.704;2023-05-18T12:47:50;95371.91;;;15.88;29.89
77366;BME280;66430;50.182;11.704;2023-05-18T12:50:15;95363.68;;;15.68;27.61